Time;durP1;ratioP1;P1;durP2;ratioP2;P2;SDS_P1;SDS_P2;PMS_P1;PMS_P2;Temp;Humidity;BMP_temperature;BMP_pressure;BME280_temperature;BME280_humidity;BME280_pressure;Samples;Min_cycle;Max_cycle;Signal;HPM_P1;HPM_P2
2020/12/22 00:00:20;;;;;;;0.73;0.50;;;;;;;;;;4975525;28;20388;-78
2020/12/22 00:02:47;;;;;;;0.90;0.50;;;12.10;99.90;;;;;;4972939;28;20491;-79
2020/12/22 00:05:14;;;;;;;1.38;0.50;;;12.30;99.90;;;;;;4975462;28;20400;-79
2020/12/22 00:07:40;;;;;;;0.70;0.70;;;12.20;99.90;;;;;;4974308;28;20788;-79
2020/12/22 00:10:07;;;;;;;0.70;0.70;;;12.10;99.90;;;;;;4975025;28;20399;-79
2020/12/22 00:12:33;;;;;;;1.20;0.80;;;12.20;99.90;;;;;;4974632;28;20966;-79
2020/12/22 00:15:03;;;;;;;1.30;0.70;;;;;;;;;;4975551;28;20483;-79
2020/12/22 00:17:28;;;;;;;0.60;0.40;;;12.20;99.90;;;;;;4974627;28;20396;-79
2020/12/22 00:19:54;;;;;;;0.95;0.60;;;12.60;99.90;;;;;;4974333;28;20455;-80
2020/12/22 00:22:20;;;;;;;0.80;0.50;;;12.20;99.90;;;;;;4975490;28;20474;-80
2020/12/22 00:24:45;;;;;;;0.50;0.40;;;12.50;99.90;;;;;;4974227;28;20384;-79
2020/12/22 00:27:11;;;;;;;0.80;0.50;;;12.20;99.90;;;;;;4974364;28;20935;-78
2020/12/22 00:29:37;;;;;;;0.70;0.40;;;12.30;99.90;;;;;;4972477;28;20463;-79
2020/12/22 00:32:02;;;;;;;0.50;0.40;;;12.70;99.90;;;;;;4958810;28;20512;-78
2020/12/22 00:34:29;;;;;;;0.55;0.55;;;12.80;99.90;;;;;;4962677;28;20396;-81
2020/12/22 00:36:55;;;;;;;0.50;0.40;;;12.30;99.90;;;;;;4968128;28;20421;-78
2020/12/22 00:39:20;;;;;;;0.60;0.40;;;12.30;99.90;;;;;;4955150;28;20468;-78
2020/12/22 00:41:54;;;;;;;1.00;0.50;;;12.60;99.90;;;;;;4953211;28;20751;-79
2020/12/22 00:44:20;;;;;;;0.93;0.60;;;12.70;99.90;;;;;;4955284;28;20851;-78
2020/12/22 00:46:46;;;;;;;0.80;0.40;;;12.40;99.90;;;;;;4954308;28;20574;-76
2020/12/22 00:49:11;;;;;;;0.52;0.50;;;12.30;99.90;;;;;;4955132;28;20885;-77
2020/12/22 00:51:37;;;;;;;0.70;0.45;;;12.40;99.90;;;;;;4953526;28;20767;-77
2020/12/22 00:54:03;;;;;;;0.60;0.35;;;;;;;;;;4954799;28;20393;-78
2020/12/22 00:56:29;;;;;;;0.80;0.50;;;12.30;99.90;;;;;;4953592;28;20883;-78
2020/12/22 00:58:54;;;;;;;0.50;0.50;;;12.40;99.90;;;;;;4954598;28;20414;-76
2020/12/22 01:01:20;;;;;;;0.60;0.40;;;12.80;99.90;;;;;;4953696;28;20413;-78
2020/12/22 01:03:46;;;;;;;0.70;0.47;;;13.30;99.90;;;;;;4952922;28;20430;-77
2020/12/22 01:06:12;;;;;;;0.80;0.30;;;12.60;99.90;;;;;;4953550;28;20510;-78
2020/12/22 01:08:38;;;;;;;1.30;0.40;;;12.70;99.90;;;;;;4953966;28;20382;-77
2020/12/22 01:11:03;;;;;;;0.60;0.40;;;12.60;99.90;;;;;;4954201;28;20786;-76
2020/12/22 01:13:30;;;;;;;0.70;0.40;;;12.80;99.90;;;;;;4970035;28;20481;-77
2020/12/22 01:15:56;;;;;;;0.40;0.30;;;13.20;99.90;;;;;;4954068;28;20394;-77
2020/12/22 01:18:22;;;;;;;0.50;0.40;;;12.70;99.90;;;;;;4954431;28;20747;-78
2020/12/22 01:20:48;;;;;;;0.50;0.40;;;12.90;99.90;;;;;;4953910;28;20433;-77
2020/12/22 01:23:14;;;;;;;0.50;0.40;;;12.60;99.90;;;;;;4954199;28;20859;-80
2020/12/22 01:25:41;;;;;;;0.50;0.40;;;12.70;99.90;;;;;;4968237;28;20397;-77
2020/12/22 01:28:07;;;;;;;1.10;0.30;;;12.50;99.90;;;;;;4954204;28;20397;-77
2020/12/22 01:30:35;;;;;;;1.50;0.40;;;12.80;99.90;;;;;;4957410;28;20420;-81
2020/12/22 01:33:00;;;;;;;0.40;0.30;;;12.80;99.90;;;;;;4973442;28;20797;-80
2020/12/22 01:35:26;;;;;;;0.60;0.20;;;12.90;99.90;;;;;;4973481;28;20444;-76
2020/12/22 01:37:52;;;;;;;0.60;0.30;;;12.80;99.90;;;;;;4972857;28;20415;-78
2020/12/22 01:40:18;;;;;;;0.70;0.30;;;12.90;99.90;;;;;;4973231;28;20380;-78
2020/12/22 01:42:44;;;;;;;0.50;0.30;;;13.80;99.90;;;;;;4972189;28;20415;-78
2020/12/22 01:45:13;;;;;;;0.60;0.20;;;12.90;99.90;;;;;;4973755;28;20483;-76
2020/12/22 01:47:46;;;;;;;0.80;0.30;;;13.20;99.90;;;;;;4971443;28;20397;-77
2020/12/22 01:50:16;;;;;;;0.40;0.20;;;13.30;99.90;;;;;;4973718;28;20389;-77
2020/12/22 01:52:42;;;;;;;0.50;0.20;;;14.10;99.90;;;;;;4973041;28;20396;-78
2020/12/22 01:55:08;;;;;;;0.40;0.20;;;13.20;99.90;;;;;;4973168;28;20800;-77
2020/12/22 01:57:33;;;;;;;0.53;0.40;;;13.00;99.90;;;;;;4972658;28;20392;-79
2020/12/22 01:59:59;;;;;;;0.50;0.30;;;13.30;99.90;;;;;;4972762;28;20853;-77
2020/12/22 02:02:26;;;;;;;0.40;0.30;;;13.00;99.90;;;;;;4987553;28;20964;-78
2020/12/22 02:04:52;;;;;;;0.47;0.30;;;13.30;99.90;;;;;;4971848;28;20472;-76
2020/12/22 02:07:18;;;;;;;0.40;0.30;;;12.90;99.90;;;;;;4971922;28;20388;-81
2020/12/22 02:09:45;;;;;;;0.50;0.30;;;13.00;99.90;;;;;;4972160;28;20388;-77
2020/12/22 02:12:11;;;;;;;0.40;0.30;;;13.50;99.90;;;;;;4972974;28;20439;-77
2020/12/22 02:14:37;;;;;;;0.40;0.20;;;13.50;99.90;;;;;;4987290;28;20396;-82
2020/12/22 02:17:02;;;;;;;0.50;0.20;;;13.00;99.90;;;;;;4972435;28;20749;-77
2020/12/22 02:19:28;;;;;;;1.20;0.30;;;13.10;99.90;;;;;;4972801;28;20496;-77
2020/12/22 02:21:54;;;;;;;0.68;0.20;;;13.70;99.90;;;;;;4972149;28;21045;-77
2020/12/22 02:24:20;;;;;;;0.40;0.20;;;13.10;99.90;;;;;;4972640;28;20826;-77
2020/12/22 02:26:46;;;;;;;0.80;0.30;;;13.10;99.90;;;;;;4971798;28;20781;-77
2020/12/22 02:29:12;;;;;;;0.40;0.30;;;13.20;99.90;;;;;;4972772;28;20459;-77
2020/12/22 02:31:41;;;;;;;0.40;0.20;;;13.30;99.90;;;;;;4959688;28;20430;-82
2020/12/22 02:34:06;;;;;;;0.40;0.20;;;13.10;99.90;;;;;;4953097;28;20401;-78
2020/12/22 02:36:33;;;;;;;0.40;0.30;;;13.20;99.90;;;;;;4952862;28;20775;-78
2020/12/22 02:38:59;;;;;;;0.60;0.30;;;13.30;99.90;;;;;;4952393;28;20389;-77
2020/12/22 02:41:25;;;;;;;0.60;0.40;;;13.10;99.90;;;;;;4951851;29;20416;-79
2020/12/22 02:43:50;;;;;;;0.40;0.30;;;13.20;99.90;;;;;;4953187;28;20401;-78
2020/12/22 02:46:16;;;;;;;1.20;0.30;;;13.10;99.90;;;;;;4955153;28;20394;-77
2020/12/22 02:48:42;;;;;;;0.40;0.20;;;13.30;99.90;;;;;;4953089;28;20389;-78
2020/12/22 02:51:07;;;;;;;1.27;0.50;;;13.10;99.90;;;;;;4953148;28;20544;-79
2020/12/22 02:53:33;;;;;;;0.40;0.30;;;13.40;99.90;;;;;;4953441;28;20730;-80
2020/12/22 02:55:59;;;;;;;0.40;0.20;;;12.90;99.90;;;;;;4952259;28;20489;-78
2020/12/22 02:58:24;;;;;;;0.40;0.20;;;13.20;99.90;;;;;;4952770;28;20470;-79
2020/12/22 03:00:50;;;;;;;0.47;0.30;;;13.20;99.90;;;;;;4951259;28;20788;-79
2020/12/22 03:03:15;;;;;;;0.40;0.20;;;13.40;99.90;;;;;;4952991;28;20747;-81
2020/12/22 03:05:41;;;;;;;0.40;0.30;;;13.40;99.90;;;;;;4966723;28;20404;-79
2020/12/22 03:08:09;;;;;;;0.40;0.30;;;13.30;99.90;;;;;;4952741;28;20418;-79
2020/12/22 03:10:35;;;;;;;0.40;0.20;;;13.20;99.90;;;;;;4951674;28;20434;-78
2020/12/22 03:13:00;;;;;;;0.40;0.28;;;13.20;99.90;;;;;;4951757;28;20763;-78
2020/12/22 03:15:26;;;;;;;1.08;0.47;;;13.60;99.90;;;;;;4967182;28;20404;-76
2020/12/22 03:17:51;;;;;;;1.20;0.50;;;13.40;99.90;;;;;;4952290;28;20791;-78
2020/12/22 03:20:17;;;;;;;0.40;0.30;;;13.30;99.90;;;;;;4951503;29;20423;-79
2020/12/22 03:22:43;;;;;;;0.40;0.20;;;14.10;99.90;;;;;;4951801;28;20755;-78
2020/12/22 03:25:12;;;;;;;0.40;0.20;;;13.30;99.90;;;;;;4951502;29;20496;-78
2020/12/22 03:27:39;;;;;;;0.90;0.30;;;13.30;99.90;;;;;;4952572;28;20441;-84
2020/12/22 03:30:10;;;;;;;0.90;0.30;;;12.00;99.90;;;;;;4951956;28;20937;-79
2020/12/22 03:32:37;;;;;;;1.30;0.30;;;13.30;99.90;;;;;;4952863;28;20389;-78
2020/12/22 03:35:04;;;;;;;0.40;0.20;;;13.50;99.90;;;;;;4950770;29;20463;-79
2020/12/22 03:37:29;;;;;;;0.50;0.30;;;13.30;99.90;;;;;;4952100;28;20418;-79
2020/12/22 03:40:01;;;;;;;0.50;0.30;;;13.50;99.90;;;;;;4951520;29;20814;-80
2020/12/22 03:42:28;;;;;;;0.50;0.30;;;13.50;99.90;;;;;;4967512;28;20405;-80
2020/12/22 03:44:53;;;;;;;0.40;0.28;;;13.90;99.90;;;;;;4966356;28;20402;-79
2020/12/22 03:47:19;;;;;;;1.10;0.50;;;13.50;99.90;;;;;;4952638;29;20385;-80
2020/12/22 03:49:45;;;;;;;1.00;0.30;;;13.50;99.90;;;;;;4951533;29;20720;-80
2020/12/22 03:52:11;;;;;;;0.40;0.20;;;13.40;99.90;;;;;;4951938;28;20425;-80
2020/12/22 03:54:37;;;;;;;0.60;0.30;;;13.20;99.90;;;;;;4951134;29;20719;-77
2020/12/22 03:57:04;;;;;;;0.40;0.20;;;13.50;99.90;;;;;;4950249;29;20393;-79
2020/12/22 03:59:30;;;;;;;0.40;0.20;;;13.50;99.90;;;;;;4952811;28;20492;-78
2020/12/22 04:01:55;;;;;;;0.40;0.20;;;13.50;99.90;;;;;;4951922;28;20859;-78
2020/12/22 04:04:22;;;;;;;0.55;0.30;;;13.70;99.90;;;;;;4952792;29;20392;-78
2020/12/22 04:06:48;;;;;;;0.40;0.30;;;13.50;99.90;;;;;;4949860;29;20426;-79
2020/12/22 04:09:16;;;;;;;0.50;0.20;;;13.50;99.90;;;;;;4950897;28;20953;-79
2020/12/22 04:11:42;;;;;;;0.40;0.20;;;;;;;;;;4951439;28;20937;-79
2020/12/22 04:14:08;;;;;;;0.40;0.20;;;13.40;99.90;;;;;;4952077;28;20378;-79
2020/12/22 04:16:34;;;;;;;0.50;0.20;;;13.50;99.90;;;;;;4952493;29;20755;-78
2020/12/22 04:19:00;;;;;;;1.10;0.30;;;13.30;99.90;;;;;;4949848;28;20397;-81
2020/12/22 04:21:27;;;;;;;0.60;0.30;;;13.50;99.90;;;;;;4967212;28;20456;-79
2020/12/22 04:23:53;;;;;;;0.40;0.20;;;;;;;;;;4951285;29;20783;-79
2020/12/22 04:26:19;;;;;;;0.85;0.38;;;13.40;99.90;;;;;;4952490;28;20859;-76
2020/12/22 04:28:44;;;;;;;0.40;0.20;;;13.40;99.90;;;;;;4954878;28;20485;-80
2020/12/22 04:31:10;;;;;;;0.40;0.20;;;13.40;99.90;;;;;;4963667;28;20500;-78
2020/12/22 04:33:36;;;;;;;0.40;0.20;;;13.40;99.90;;;;;;4974679;28;21214;-78
2020/12/22 04:36:01;;;;;;;1.40;0.20;;;13.90;99.90;;;;;;4972535;28;20462;-77
2020/12/22 04:38:27;;;;;;;0.40;0.30;;;13.50;99.90;;;;;;4974660;28;20380;-77
2020/12/22 04:40:53;;;;;;;0.40;0.20;;;13.60;99.90;;;;;;4972372;28;20447;-77
2020/12/22 04:43:18;;;;;;;0.40;0.20;;;13.60;99.90;;;;;;4974684;28;20471;-78
2020/12/22 04:45:50;;;;;;;0.50;0.22;;;13.30;99.90;;;;;;4973970;28;20948;-77
2020/12/22 04:48:20;;;;;;;0.50;0.30;;;13.50;99.90;;;;;;4975160;28;20377;-80
2020/12/22 04:50:48;;;;;;;0.60;0.30;;;13.50;99.90;;;;;;4973962;28;20423;-81
2020/12/22 04:53:14;;;;;;;0.40;0.30;;;13.40;99.90;;;;;;4974280;28;20428;-77
2020/12/22 04:55:40;;;;;;;1.40;0.30;;;13.40;99.90;;;;;;4974439;28;20395;-78
2020/12/22 04:58:06;;;;;;;0.40;0.22;;;13.50;99.90;;;;;;4974115;28;20396;-78
2020/12/22 05:00:32;;;;;;;0.60;0.30;;;13.70;99.90;;;;;;4974170;28;20436;-78
2020/12/22 05:03:02;;;;;;;0.40;0.20;;;13.30;99.90;;;;;;4973657;28;20829;-78
2020/12/22 05:05:27;;;;;;;1.60;0.30;;;13.30;99.90;;;;;;4974394;28;20408;-76
2020/12/22 05:07:53;;;;;;;0.50;0.20;;;13.50;99.90;;;;;;4973821;28;20751;-77
2020/12/22 05:10:19;;;;;;;0.40;0.20;;;13.50;99.90;;;;;;4989281;28;20745;-77
2020/12/22 05:12:44;;;;;;;0.50;0.30;;;13.70;99.90;;;;;;4974767;28;20403;-80
2020/12/22 05:15:11;;;;;;;0.60;0.30;;;13.40;99.90;;;;;;4972582;28;20396;-78
2020/12/22 05:17:45;;;;;;;0.50;0.25;;;13.50;99.90;;;;;;4974275;28;20499;-79
2020/12/22 05:20:15;;;;;;;0.40;0.25;;;13.40;99.90;;;;;;4973440;28;20381;-78
2020/12/22 05:22:45;;;;;;;0.60;0.40;;;13.70;99.90;;;;;;4973772;28;20419;-78
2020/12/22 05:25:14;;;;;;;0.40;0.20;;;13.80;99.90;;;;;;4964385;28;20949;-79
2020/12/22 05:27:43;;;;;;;0.40;0.23;;;13.60;99.90;;;;;;4973616;28;20384;-78
2020/12/22 05:30:09;;;;;;;0.40;0.20;;;13.60;99.90;;;;;;4969766;28;20412;-76
2020/12/22 05:32:35;;;;;;;1.10;0.20;;;13.60;99.90;;;;;;4971791;28;20829;-78
2020/12/22 05:35:01;;;;;;;0.40;0.20;;;13.80;99.90;;;;;;4973036;28;20389;-77
2020/12/22 05:37:27;;;;;;;0.50;0.30;;;13.70;99.90;;;;;;4972925;28;20408;-80
2020/12/22 05:39:53;;;;;;;0.40;0.20;;;13.60;99.90;;;;;;4972518;28;20385;-77
2020/12/22 05:42:20;;;;;;;0.45;0.20;;;13.70;99.90;;;;;;4971915;28;20420;-79
2020/12/22 05:44:50;;;;;;;0.40;0.30;;;13.60;99.90;;;;;;4972073;28;20396;-84
2020/12/22 05:47:19;;;;;;;0.43;0.30;;;13.60;99.90;;;;;;4973520;28;20399;-80
2020/12/22 05:49:49;;;;;;;0.50;0.30;;;13.30;99.90;;;;;;4971983;28;20907;-79
2020/12/22 05:52:15;;;;;;;0.47;0.30;;;13.70;99.90;;;;;;4971836;28;20420;-80
2020/12/22 05:54:45;;;;;;;0.40;0.20;;;13.80;99.90;;;;;;4973802;28;20438;-78
2020/12/22 05:57:11;;;;;;;0.40;0.20;;;13.50;99.90;;;;;;4968145;28;20416;-79
2020/12/22 05:59:37;;;;;;;0.50;0.20;;;13.50;99.90;;;;;;4972642;28;20714;-80
2020/12/22 06:02:04;;;;;;;0.40;0.30;;;15.80;99.90;;;;;;4989038;28;20450;-78
2020/12/22 06:04:30;;;;;;;0.40;0.20;;;13.70;99.90;;;;;;4973925;28;20471;-78
2020/12/22 06:06:56;;;;;;;0.80;0.40;;;13.50;99.90;;;;;;4972974;28;20392;-80
2020/12/22 06:09:22;;;;;;;0.40;0.32;;;13.50;99.90;;;;;;4973492;28;20388;-79
2020/12/22 06:11:49;;;;;;;0.40;0.30;;;13.50;99.90;;;;;;4972943;28;20430;-82
2020/12/22 06:14:24;;;;;;;0.40;0.20;;;13.30;99.90;;;;;;4973486;28;20397;-79
2020/12/22 06:16:50;;;;;;;0.50;0.30;;;13.70;99.90;;;;;;4972542;28;20435;-81
2020/12/22 06:19:17;;;;;;;0.50;0.20;;;13.30;99.90;;;;;;4973705;28;20439;-80
2020/12/22 06:21:42;;;;;;;0.40;0.30;;;13.60;99.90;;;;;;4988844;28;20889;-79
2020/12/22 06:24:13;;;;;;;0.40;0.20;;;13.70;99.90;;;;;;4973086;28;20392;-80
2020/12/22 06:26:38;;;;;;;0.40;0.20;;;13.70;99.90;;;;;;4972633;28;20483;-79
2020/12/22 06:29:24;;;;;;;0.40;0.25;;;13.70;99.90;;;;;;4973430;28;20467;-81
2020/12/22 06:31:49;;;;;;;0.40;0.30;;;13.70;99.90;;;;;;4959496;28;20425;-81
2020/12/22 06:34:24;;;;;;;0.40;0.20;;;13.70;99.90;;;;;;4954139;28;20937;-79
2020/12/22 06:36:59;;;;;;;0.40;0.22;;;13.80;99.90;;;;;;4953660;28;20783;-84
2020/12/22 06:39:39;;;;;;;0.40;0.20;;;13.70;99.90;;;;;;4954070;28;20780;-79
2020/12/22 06:42:05;;;;;;;0.40;0.30;;;13.90;99.90;;;;;;4951897;28;20421;-80
2020/12/22 06:44:30;;;;;;;0.40;0.20;;;13.80;99.90;;;;;;4964561;28;20823;-79
2020/12/22 06:46:58;;;;;;;0.40;0.30;;;14.10;99.90;;;;;;4972465;28;20392;-79
2020/12/22 06:49:45;;;;;;;0.40;0.20;;;13.80;99.90;;;;;;4972167;28;20423;-78
2020/12/22 06:52:34;;;;;;;0.80;0.30;;;13.80;99.90;;;;;;4971681;28;20491;-79
2020/12/22 06:55:01;;;;;;;0.50;0.30;;;13.80;99.90;;;;;;4971612;28;20788;-79
2020/12/22 06:57:51;;;;;;;0.40;0.20;;;13.80;99.90;;;;;;4972964;28;20420;-78
2020/12/22 07:00:35;;;;;;;0.40;0.30;;;13.90;99.90;;;;;;4973071;28;20407;-78
2020/12/22 07:03:11;;;;;;;0.50;0.30;;;13.90;99.90;;;;;;4972118;28;20416;-78
2020/12/22 07:05:43;;;;;;;0.40;0.30;;;13.90;99.90;;;;;;4972254;28;20395;-77
2020/12/22 07:08:10;;;;;;;0.90;0.22;;;13.90;99.90;;;;;;4972085;28;20454;-78
2020/12/22 07:10:45;;;;;;;0.40;0.20;;;14.70;99.90;;;;;;4972227;28;20471;-80
2020/12/22 07:13:12;;;;;;;0.40;0.30;;;14.00;99.90;;;;;;4971513;28;20502;-77
2020/12/22 07:15:46;;;;;;;0.50;0.30;;;13.70;99.90;;;;;;4972471;28;20384;-77
2020/12/22 07:18:14;;;;;;;0.40;0.20;;;14.20;99.90;;;;;;4971498;28;20388;-78
2020/12/22 07:20:42;;;;;;;0.50;0.30;;;14.00;99.90;;;;;;4972466;28;20443;-78
2020/12/22 07:23:13;;;;;;;0.40;0.30;;;14.00;99.90;;;;;;4971619;28;20392;-77
2020/12/22 07:25:39;;;;;;;0.40;0.30;;;14.00;99.90;;;;;;4972679;28;20391;-77
2020/12/22 07:28:07;;;;;;;0.40;0.20;;;14.10;99.90;;;;;;4971561;28;20392;-76
2020/12/22 07:30:33;;;;;;;0.40;0.20;;;13.90;99.90;;;;;;4972008;28;20392;-77
2020/12/22 07:33:00;;;;;;;0.40;0.30;;;14.00;99.90;;;;;;4971578;28;20424;-77
2020/12/22 07:35:27;;;;;;;0.60;0.30;;;14.00;99.90;;;;;;4972376;28;20392;-79
2020/12/22 07:38:07;;;;;;;0.40;0.20;;;14.00;99.90;;;;;;4970328;28;20412;-81
2020/12/22 07:40:38;;;;;;;0.90;0.20;;;14.10;99.90;;;;;;4972205;28;20495;-78
2020/12/22 07:43:09;;;;;;;0.40;0.30;;;14.50;99.90;;;;;;4986461;28;20388;-78
2020/12/22 07:45:35;;;;;;;0.70;0.30;;;14.10;99.90;;;;;;4971095;28;20436;-79
2020/12/22 07:48:07;;;;;;;0.60;0.30;;;14.20;99.90;;;;;;4971361;28;20488;-77
2020/12/22 07:50:33;;;;;;;0.40;0.27;;;14.10;99.90;;;;;;4972084;28;20741;-79
2020/12/22 07:52:59;;;;;;;0.40;0.20;;;14.30;99.90;;;;;;4971339;28;20412;-78
2020/12/22 07:55:25;;;;;;;0.50;0.30;;;14.40;99.90;;;;;;4971999;28;20880;-79
2020/12/22 07:57:52;;;;;;;1.60;0.40;;;14.50;99.90;;;;;;4971851;28;20435;-78
2020/12/22 08:00:19;;;;;;;0.40;0.30;;;14.30;99.90;;;;;;4971833;28;20393;-78
2020/12/22 08:02:45;;;;;;;0.40;0.30;;;14.50;99.90;;;;;;4974604;28;20387;-78
2020/12/22 08:05:13;;;;;;;0.40;0.20;;;14.30;99.90;;;;;;4974828;28;20380;-78
2020/12/22 08:07:42;;;;;;;0.40;0.30;;;14.30;99.90;;;;;;4975257;28;20433;-79
2020/12/22 08:10:12;;;;;;;0.60;0.40;;;14.30;99.90;;;;;;4989656;28;20392;-78
2020/12/22 08:12:38;;;;;;;0.40;0.30;;;14.30;99.90;;;;;;4974833;28;20420;-78
2020/12/22 08:15:05;;;;;;;0.50;0.30;;;14.30;99.90;;;;;;4975335;28;20392;-79
2020/12/22 08:17:35;;;;;;;0.50;0.40;;;14.30;99.90;;;;;;4975956;28;20841;-78
2020/12/22 08:20:02;;;;;;;0.47;0.30;;;14.40;99.90;;;;;;4975057;28;20395;-80
2020/12/22 08:22:29;;;;;;;0.50;0.30;;;14.30;99.90;;;;;;4975121;28;20451;-78
2020/12/22 08:24:59;;;;;;;0.50;0.30;;;14.30;99.90;;;;;;4963653;28;20780;-78
2020/12/22 08:27:24;;;;;;;0.70;0.40;;;14.30;99.90;;;;;;4961716;28;20495;-76
2020/12/22 08:29:50;;;;;;;0.57;0.30;;;14.30;99.90;;;;;;4955913;28;20477;-78
2020/12/22 08:32:23;;;;;;;0.70;0.30;;;14.70;99.90;;;;;;4965542;28;20416;-77
2020/12/22 08:34:52;;;;;;;0.40;0.20;;;14.30;99.90;;;;;;4974976;28;20414;-81
2020/12/22 08:37:25;;;;;;;0.80;0.30;;;14.30;99.90;;;;;;4948100;28;21002;-78
2020/12/22 08:39:51;;;;;;;0.40;0.20;;;14.40;99.90;;;;;;4957923;28;20496;-78
2020/12/22 08:42:17;;;;;;;0.80;0.40;;;14.40;99.90;;;;;;4957123;28;20417;-81
2020/12/22 08:44:53;;;;;;;0.40;0.25;;;14.30;99.90;;;;;;4956853;28;20414;-79
2020/12/22 08:47:20;;;;;;;0.40;0.20;;;14.30;99.90;;;;;;4953012;28;20392;-77
2020/12/22 08:49:46;;;;;;;0.40;0.30;;;14.40;99.90;;;;;;4957193;28;20396;-80
2020/12/22 08:52:20;;;;;;;0.50;0.40;;;14.20;99.90;;;;;;4957585;28;20448;-78
2020/12/22 08:54:47;;;;;;;0.40;0.30;;;14.50;99.90;;;;;;4957415;28;20401;-79
2020/12/22 08:57:21;;;;;;;0.40;0.20;;;14.40;99.90;;;;;;4952425;28;20935;-81
2020/12/22 08:59:47;;;;;;;0.40;0.30;;;14.20;99.90;;;;;;4974418;28;20392;-80
2020/12/22 09:02:24;;;;;;;0.47;0.30;;;14.10;99.90;;;;;;4957566;28;20824;-76
2020/12/22 09:04:50;;;;;;;0.40;0.30;;;14.40;99.90;;;;;;4955103;28;20460;-81
2020/12/22 09:07:16;;;;;;;0.50;0.30;;;14.20;99.90;;;;;;4955068;28;20683;-79
2020/12/22 09:09:41;;;;;;;0.47;0.20;;;14.40;99.90;;;;;;4954587;28;20390;-78
2020/12/22 09:12:09;;;;;;;0.40;0.20;;;14.40;99.90;;;;;;4955299;28;20436;-79
2020/12/22 09:14:40;;;;;;;0.40;0.30;;;14.50;99.90;;;;;;4954785;28;20406;-79
2020/12/22 09:17:06;;;;;;;0.50;0.30;;;14.60;99.90;;;;;;4953964;28;20481;-77
2020/12/22 09:19:47;;;;;;;0.40;0.20;;;14.50;99.90;;;;;;4954495;28;20400;-78
2020/12/22 09:22:14;;;;;;;0.50;0.30;;;14.60;99.90;;;;;;4955558;28;20818;-79
2020/12/22 09:24:41;;;;;;;0.40;0.40;;;15.20;99.90;;;;;;4956209;28;20389;-79
2020/12/22 09:27:12;;;;;;;0.40;0.20;;;14.60;99.90;;;;;;4954826;28;20400;-78
2020/12/22 09:29:40;;;;;;;0.50;0.30;;;14.90;99.90;;;;;;4953330;28;20397;-79
2020/12/22 09:32:08;;;;;;;0.40;0.30;;;14.60;99.90;;;;;;4955284;28;20428;-79
2020/12/22 09:34:35;;;;;;;0.40;0.40;;;14.70;99.90;;;;;;4954366;28;20409;-78
2020/12/22 09:37:04;;;;;;;0.50;0.30;;;14.60;99.90;;;;;;4948971;28;20444;-82
2020/12/22 09:39:31;;;;;;;0.40;0.30;;;15.00;99.90;;;;;;4958855;28;20801;-82
2020/12/22 09:41:57;;;;;;;0.40;0.20;;;14.60;99.90;;;;;;4959644;28;20948;-81
2020/12/22 09:44:24;;;;;;;0.60;0.40;;;14.60;99.90;;;;;;4952916;28;21231;-82
2020/12/22 09:46:52;;;;;;;0.50;0.30;;;14.60;99.90;;;;;;4951323;28;20420;-81
2020/12/22 09:49:19;;;;;;;0.40;0.30;;;14.70;99.90;;;;;;4954923;28;20379;-78
2020/12/22 09:51:45;;;;;;;0.70;0.30;;;14.50;99.90;;;;;;4966292;28;20464;-79
2020/12/22 09:54:11;;;;;;;0.50;0.40;;;15.20;99.90;;;;;;4956725;28;20420;-80
2020/12/22 09:56:37;;;;;;;0.98;0.30;;;14.80;99.90;;;;;;4957708;28;20398;-80
2020/12/22 09:59:03;;;;;;;0.40;0.30;;;15.00;99.90;;;;;;4953561;28;20405;-81
2020/12/22 10:01:29;;;;;;;0.40;0.30;;;15.00;99.90;;;;;;4956463;28;20404;-80
2020/12/22 10:03:55;;;;;;;0.80;0.70;;;14.80;99.90;;;;;;4956522;28;20386;-81
2020/12/22 10:06:23;;;;;;;0.50;0.30;;;15.00;99.90;;;;;;4967708;28;20942;-80
2020/12/22 10:08:49;;;;;;;0.40;0.30;;;14.90;99.90;;;;;;4961235;28;20496;-79
2020/12/22 10:11:15;;;;;;;0.50;0.30;;;14.70;99.90;;;;;;4955524;28;20457;-79
2020/12/22 10:13:42;;;;;;;0.50;0.30;;;14.90;99.90;;;;;;4955199;28;20396;-78
2020/12/22 10:16:13;;;;;;;0.47;0.30;;;15.00;99.90;;;;;;4969692;28;20395;-78
2020/12/22 10:18:46;;;;;;;0.40;0.20;;;15.30;99.90;;;;;;4970792;28;20483;-80
2020/12/22 10:21:14;;;;;;;0.40;0.30;;;14.70;99.90;;;;;;4971878;28;20400;-79
2020/12/22 10:23:42;;;;;;;0.60;0.30;;;14.90;99.90;;;;;;4971890;28;20429;-80
2020/12/22 10:26:10;;;;;;;0.40;0.30;;;14.90;99.90;;;;;;4971172;28;20387;-79
2020/12/22 10:28:38;;;;;;;0.70;0.22;;;15.60;99.90;;;;;;4972031;28;20384;-81
2020/12/22 10:31:04;;;;;;;0.70;0.20;;;15.00;99.90;;;;;;4964670;28;20480;-82
2020/12/22 10:33:33;;;;;;;0.40;0.30;;;;;;;;;;4952854;28;20386;-82
2020/12/22 10:35:59;;;;;;;0.47;0.30;;;15.00;99.90;;;;;;4952050;28;20406;-78
2020/12/22 10:38:24;;;;;;;0.40;0.20;;;14.80;99.90;;;;;;4952778;28;20413;-79
2020/12/22 10:40:51;;;;;;;0.50;0.30;;;14.90;99.90;;;;;;4953541;28;20457;-79
2020/12/22 10:43:17;;;;;;;0.50;0.30;;;14.90;99.90;;;;;;4950907;29;20473;-78
2020/12/22 10:45:43;;;;;;;0.40;0.30;;;15.10;99.90;;;;;;4967914;28;20437;-81
2020/12/22 10:48:08;;;;;;;0.50;0.30;;;15.20;99.90;;;;;;4952405;28;20402;-81
2020/12/22 10:50:35;;;;;;;1.00;0.30;;;15.00;99.90;;;;;;4968987;28;20404;-79
2020/12/22 10:53:02;;;;;;;0.50;0.40;;;14.90;99.90;;;;;;4970689;28;20723;-80
2020/12/22 10:55:28;;;;;;;1.48;0.30;;;14.90;99.90;;;;;;4970913;28;20408;-82
2020/12/22 10:57:54;;;;;;;0.55;0.30;;;14.80;99.90;;;;;;4962210;28;20417;-80
2020/12/22 11:00:19;;;;;;;0.40;0.30;;;14.50;99.90;;;;;;4963519;28;20411;-79
2020/12/22 11:02:47;;;;;;;0.50;0.30;;;14.90;99.90;;;;;;4956221;28;20401;-80
2020/12/22 11:05:13;;;;;;;1.20;0.40;;;15.10;99.90;;;;;;4952209;28;20390;-81
2020/12/22 11:07:48;;;;;;;1.00;0.30;;;15.70;99.90;;;;;;4950911;28;20484;-81
2020/12/22 11:10:14;;;;;;;0.40;0.30;;;;;;;;;;4969693;28;20488;-79
2020/12/22 11:12:41;;;;;;;0.50;0.30;;;14.80;99.90;;;;;;4955807;28;20535;-80
2020/12/22 11:15:07;;;;;;;0.40;0.30;;;15.30;99.90;;;;;;4951148;28;20445;-80
2020/12/22 11:17:32;;;;;;;0.57;0.40;;;15.40;99.90;;;;;;4953806;28;20796;-82
2020/12/22 11:19:58;;;;;;;0.60;0.30;;;15.00;99.90;;;;;;4958472;28;20845;-77
2020/12/22 11:22:23;;;;;;;0.40;0.30;;;15.10;99.90;;;;;;4949765;28;20918;-80
2020/12/22 11:24:49;;;;;;;0.70;0.40;;;15.10;99.90;;;;;;4956035;28;20467;-80
2020/12/22 11:27:15;;;;;;;0.40;0.30;;;15.00;99.90;;;;;;4954413;28;20388;-80
2020/12/22 11:29:40;;;;;;;0.80;0.30;;;15.10;99.90;;;;;;4953452;28;20396;-81
2020/12/22 11:32:08;;;;;;;0.60;0.30;;;15.10;99.90;;;;;;4952658;28;20456;-81
2020/12/22 11:34:33;;;;;;;0.70;0.40;;;15.00;99.90;;;;;;4951603;28;20398;-80
2020/12/22 11:36:59;;;;;;;1.00;0.30;;;15.00;99.90;;;;;;4951367;28;20753;-79
2020/12/22 11:39:25;;;;;;;0.50;0.33;;;15.10;99.90;;;;;;4956314;28;20404;-79
2020/12/22 11:41:50;;;;;;;0.70;0.40;;;15.00;99.90;;;;;;4954075;28;20794;-81
2020/12/22 11:44:16;;;;;;;0.70;0.30;;;15.00;99.90;;;;;;4954424;28;20395;-79
2020/12/22 11:46:45;;;;;;;0.40;0.30;;;15.00;99.90;;;;;;4954289;28;20495;-79
2020/12/22 11:49:11;;;;;;;0.40;0.20;;;15.40;99.90;;;;;;4956204;28;20399;-81
2020/12/22 11:51:38;;;;;;;0.40;0.20;;;15.10;99.90;;;;;;4957354;28;20428;-79
2020/12/22 11:54:04;;;;;;;0.50;0.20;;;15.00;99.90;;;;;;4957277;28;20828;-82
2020/12/22 11:56:30;;;;;;;0.55;0.30;;;15.20;99.90;;;;;;4952705;28;20470;-79
2020/12/22 11:58:57;;;;;;;0.50;0.30;;;15.40;99.90;;;;;;4958130;28;20392;-79
2020/12/22 12:01:30;;;;;;;0.70;0.30;;;15.50;99.90;;;;;;4953167;28;20454;-79
2020/12/22 12:03:56;;;;;;;0.57;0.40;;;15.30;99.90;;;;;;4954913;28;20419;-81
2020/12/22 12:06:27;;;;;;;1.10;0.30;;;15.50;99.90;;;;;;4949761;28;20818;-81
2020/12/22 12:08:52;;;;;;;0.60;0.20;;;15.10;99.90;;;;;;4971269;28;20501;-80
2020/12/22 12:11:18;;;;;;;0.40;0.30;;;15.20;99.90;;;;;;4954702;28;20442;-80
2020/12/22 12:13:44;;;;;;;0.40;0.30;;;15.10;99.90;;;;;;4956379;28;20389;-79
2020/12/22 12:16:09;;;;;;;0.50;0.40;;;15.50;99.90;;;;;;4956029;28;20408;-80
2020/12/22 12:18:36;;;;;;;0.50;0.30;;;15.00;99.90;;;;;;4946399;28;20401;-80
2020/12/22 12:21:03;;;;;;;0.70;0.50;;;15.00;99.90;;;;;;4952371;28;20400;-80
2020/12/22 12:23:29;;;;;;;0.50;0.30;;;14.90;99.90;;;;;;4948780;28;20408;-82
2020/12/22 12:25:54;;;;;;;0.50;0.30;;;15.00;99.90;;;;;;4954570;28;21161;-83
2020/12/22 12:28:21;;;;;;;0.50;0.30;;;14.90;99.90;;;;;;4953703;28;20496;-81
2020/12/22 12:30:47;;;;;;;0.40;0.30;;;14.90;99.90;;;;;;4954993;28;20393;-80
2020/12/22 12:33:13;;;;;;;0.43;0.30;;;14.80;99.90;;;;;;4953465;28;20898;-83
2020/12/22 12:35:39;;;;;;;0.50;0.30;;;14.90;99.90;;;;;;4955952;28;20414;-78
2020/12/22 12:38:04;;;;;;;0.40;0.30;;;14.80;99.90;;;;;;4954985;28;20420;-79
2020/12/22 12:40:30;;;;;;;0.50;0.30;;;15.40;99.90;;;;;;4952611;28;20399;-80
2020/12/22 12:42:56;;;;;;;0.40;0.20;;;14.90;99.90;;;;;;4973883;28;20396;-78
2020/12/22 12:45:21;;;;;;;0.67;0.30;;;14.90;99.90;;;;;;4973800;28;20757;-78
2020/12/22 12:47:47;;;;;;;1.00;0.40;;;15.10;99.90;;;;;;4968923;28;20410;-81